createdAt,value
2023-02-19T00:02:18.939Z,120.50
2023-02-19T00:04:46.027Z,119.50
2023-02-19T00:11:12.514Z,115.40
2023-02-19T00:13:43.688Z,120.90
2023-02-19T00:16:14.724Z,122.50
2023-02-19T00:23:15.180Z,117.50
2023-02-19T00:25:42.201Z,131.50
2023-02-19T00:28:09.376Z,121.40
2023-02-19T00:30:36.361Z,117.30
2023-02-19T00:33:03.380Z,121.60
2023-02-19T00:39:43.958Z,120.30
2023-02-19T00:42:11.123Z,111.70
2023-02-19T00:49:06.650Z,119.40
2023-02-19T00:51:38.504Z,125.50
2023-02-19T00:54:06.478Z,126.50
2023-02-19T01:01:01.294Z,124.40
2023-02-19T01:10:16.812Z,116.50
2023-02-19T01:16:38.047Z,106.90
2023-02-19T01:19:05.191Z,123.80
2023-02-19T01:22:49.241Z,128.40
2023-02-19T01:27:43.020Z,120.10
2023-02-19T01:30:10.607Z,119.80
2023-02-19T01:36:58.346Z,115.70
2023-02-19T01:48:27.700Z,124.00
2023-02-19T01:51:06.733Z,124.00
2023-02-19T01:58:10.048Z,120.10
2023-02-19T02:09:32.239Z,109.50
2023-02-19T02:11:59.696Z,119.70
2023-02-19T02:17:18.469Z,126.80
2023-02-19T02:20:11.318Z,116.80
2023-02-19T02:22:42.664Z,119.60
2023-02-19T02:25:46.780Z,124.90
2023-02-19T02:28:32.572Z,123.80
2023-02-19T02:35:18.889Z,124.80
2023-02-19T02:42:26.205Z,133.60
2023-02-19T02:45:36.972Z,114.70
2023-02-19T02:57:03.983Z,118.50
2023-02-19T02:59:36.969Z,117.30
2023-02-19T03:02:11.042Z,118.40
2023-02-19T03:05:15.186Z,129.70
2023-02-19T03:07:56.978Z,121.60
2023-02-19T03:10:30.675Z,118.30
2023-02-19T03:13:18.925Z,121.50
2023-02-19T03:16:11.289Z,124.30
2023-02-19T03:22:48.468Z,116.40
2023-02-19T03:29:45.857Z,110.20
2023-02-19T03:32:20.854Z,124.10
2023-02-19T03:39:22.469Z,126.00
2023-02-19T03:42:05.901Z,121.90
2023-02-19T03:44:50.960Z,120.00
2023-02-19T03:47:32.145Z,125.90
2023-02-19T03:50:20.995Z,126.20
2023-02-19T03:52:50.910Z,128.60
2023-02-19T03:55:48.169Z,115.90
2023-02-19T03:58:28.628Z,125.00
2023-02-19T04:05:35.645Z,115.50
2023-02-19T04:08:13.542Z,117.70
2023-02-19T04:10:45.810Z,110.90
2023-02-19T04:22:08.816Z,110.20
2023-02-19T04:24:45.372Z,106.90
2023-02-19T04:27:12.434Z,114.30
2023-02-19T04:42:55.630Z,106.20
2023-02-19T04:45:22.677Z,112.60
2023-02-19T04:47:49.824Z,114.00
2023-02-19T04:54:37.890Z,110.20
2023-02-19T04:57:05.464Z,101.40
2023-02-19T05:03:41.532Z,111.20
2023-02-19T05:06:10.930Z,105.80
2023-02-19T05:08:38.485Z,98.70
2023-02-19T05:15:31.494Z,104.80
2023-02-19T05:17:58.715Z,102.70
2023-02-19T05:20:25.564Z,111.00
2023-02-19T05:22:52.607Z,115.40
2023-02-19T05:25:19.763Z,104.60
2023-02-19T05:32:14.031Z,104.50
2023-02-19T05:34:41.095Z,103.10
2023-02-19T05:41:42.694Z,110.90
2023-02-19T05:57:28.659Z,107.00
2023-02-19T06:04:23.895Z,117.80
2023-02-19T06:06:51.149Z,114.90
2023-02-19T06:13:51.202Z,97.50
2023-02-19T06:29:45.666Z,105.30
2023-02-19T06:32:12.578Z,104.30
2023-02-19T06:34:39.749Z,103.20
2023-02-19T06:41:34.887Z,106.30
2023-02-19T06:44:04.675Z,99.60
2023-02-19T06:50:59.008Z,111.60
2023-02-19T06:53:27.278Z,101.50
2023-02-19T06:56:06.600Z,101.80
2023-02-19T07:07:14.671Z,103.00
2023-02-19T07:14:15.221Z,108.50
2023-02-19T07:16:43.377Z,103.70
2023-02-19T07:23:37.936Z,105.10
2023-02-19T07:38:16.810Z,104.50
2023-02-19T07:40:57.694Z,101.60
2023-02-19T07:43:26.580Z,106.20
2023-02-19T07:50:28.975Z,97.30
2023-02-19T07:52:56.016Z,90.00
2023-02-19T07:55:23.065Z,92.10
2023-02-19T07:57:50.008Z,78.30
2023-02-19T08:00:19.104Z,88.70
2023-02-19T08:12:14.669Z,86.30
2023-02-19T08:14:41.721Z,85.10
2023-02-19T08:17:08.900Z,81.40
2023-02-19T08:19:36.014Z,90.30
2023-02-19T08:22:03.155Z,92.20
2023-02-19T08:28:58.925Z,96.70
2023-02-19T08:31:26.837Z,88.70
2023-02-19T08:38:21.182Z,91.90
2023-02-19T08:40:48.231Z,95.80
2023-02-19T08:43:17.340Z,95.10
2023-02-19T08:54:32.794Z,86.40
2023-02-19T08:56:59.998Z,103.00
2023-02-19T08:59:29.502Z,82.20
2023-02-19T09:10:28.039Z,90.30
2023-02-19T09:21:25.053Z,72.30
2023-02-19T09:23:55.239Z,96.80
2023-02-19T09:26:24.530Z,93.60
2023-02-19T09:28:51.501Z,98.80
2023-02-19T09:31:18.514Z,95.70
2023-02-19T09:42:32.766Z,88.20
2023-02-19T09:45:01.442Z,97.60
2023-02-19T09:47:31.155Z,98.90
2023-02-19T09:50:07.096Z,94.60
2023-02-19T09:52:51.348Z,105.80
2023-02-19T10:04:26.848Z,91.00
2023-02-19T10:06:58.810Z,104.10
2023-02-19T10:09:27.016Z,99.80
2023-02-19T10:11:55.557Z,100.10
2023-02-19T10:14:46.359Z,85.40
2023-02-19T10:17:24.671Z,108.20
2023-02-19T10:19:52.948Z,104.10
2023-02-19T10:22:20.627Z,116.80
2023-02-19T10:24:52.878Z,93.40
2023-02-19T10:32:13.636Z,108.90
2023-02-19T10:34:40.692Z,105.20
2023-02-19T10:41:44.144Z,109.50
2023-02-19T10:44:19.317Z,110.90
2023-02-19T10:46:50.048Z,107.00
2023-02-19T10:49:24.475Z,100.50
2023-02-19T10:51:53.876Z,113.40
2023-02-19T10:54:27.181Z,109.90
2023-02-19T10:56:54.630Z,107.80
2023-02-19T11:08:23.256Z,103.50
2023-02-19T11:10:50.608Z,94.40
2023-02-19T11:15:54.543Z,106.40
2023-02-19T11:18:31.098Z,97.30
2023-02-19T11:29:39.371Z,102.40
2023-02-19T11:32:29.273Z,86.20
2023-02-19T11:55:04.508Z,98.00
2023-02-19T12:06:45.636Z,98.00
2023-02-19T12:09:30.602Z,92.90
2023-02-19T12:12:16.156Z,101.50
2023-02-19T12:14:42.922Z,90.90
2023-02-19T12:17:51.338Z,96.40
2023-02-19T12:21:02.006Z,91.70
2023-02-19T12:28:18.446Z,90.10
2023-02-19T12:31:03.622Z,87.00
2023-02-19T12:33:45.398Z,80.00
2023-02-19T12:36:40.807Z,104.10
2023-02-19T12:43:47.104Z,92.70
2023-02-19T12:50:53.047Z,89.30
2023-02-19T12:54:03.491Z,87.00
2023-02-19T12:57:09.990Z,83.80
2023-02-19T12:59:39.598Z,84.00
2023-02-19T13:02:13.079Z,85.80
2023-02-19T13:07:16.703Z,82.60
2023-02-19T13:09:51.292Z,95.90
2023-02-19T13:12:30.967Z,90.10
2023-02-19T13:15:01.965Z,92.20
2023-02-19T13:17:44.331Z,86.50
2023-02-19T13:20:20.621Z,90.90
2023-02-19T13:23:16.640Z,86.50
2023-02-19T13:25:43.563Z,75.90
2023-02-19T13:28:26.341Z,74.10
2023-02-19T13:31:10.917Z,86.30
2023-02-19T13:34:15.108Z,85.10
2023-02-19T13:36:41.533Z,79.30
2023-02-19T13:39:12.372Z,79.50
2023-02-19T13:41:49.634Z,82.50
2023-02-19T13:44:19.184Z,78.00
2023-02-19T13:46:47.596Z,79.80
2023-02-19T13:49:28.557Z,77.10
2023-02-19T13:51:58.490Z,74.90
2023-02-19T13:54:27.677Z,78.80
2023-02-19T13:57:23.080Z,74.30
2023-02-19T13:59:50.720Z,73.10
2023-02-19T14:02:19.463Z,71.30
2023-02-19T14:04:53.031Z,78.10
2023-02-19T14:07:32.518Z,81.10
2023-02-19T14:10:01.063Z,78.10
2023-02-19T14:12:32.906Z,89.00
2023-02-19T14:15:24.817Z,83.00
2023-02-19T14:17:50.777Z,76.30
2023-02-19T14:20:16.630Z,79.60
2023-02-19T14:22:45.614Z,77.50
2023-02-19T14:25:29.929Z,76.90
2023-02-19T14:28:34.599Z,74.60
2023-02-19T14:31:17.460Z,70.50
2023-02-19T14:33:48.392Z,66.60
2023-02-19T14:36:33.451Z,70.10
2023-02-19T14:39:10.376Z,71.60
2023-02-19T14:41:44.453Z,73.20
2023-02-19T14:44:20.035Z,65.10
2023-02-19T14:46:53.111Z,68.50
2023-02-19T14:49:50.794Z,67.00
2023-02-19T14:52:19.966Z,72.30
2023-02-19T14:54:53.647Z,69.10
2023-02-19T14:57:24.975Z,72.90
2023-02-19T14:59:58.039Z,72.40
2023-02-19T15:02:28.127Z,72.60
2023-02-19T15:04:54.642Z,66.20
2023-02-19T15:07:32.413Z,64.00
2023-02-19T15:10:04.809Z,66.90
2023-02-19T15:12:56.917Z,66.20
2023-02-19T15:15:32.620Z,61.40
2023-02-19T15:18:00.702Z,66.00
2023-02-19T15:20:37.451Z,64.70
2023-02-19T15:23:07.438Z,69.80
2023-02-19T15:25:36.007Z,64.60
2023-02-19T15:28:24.332Z,65.70
2023-02-19T15:30:56.774Z,58.50
2023-02-19T15:33:23.151Z,57.90
2023-02-19T15:35:51.848Z,66.60
2023-02-19T15:38:17.992Z,65.30
2023-02-19T15:40:45.588Z,61.40
2023-02-19T15:43:20.554Z,63.50
2023-02-19T15:45:47.428Z,62.10
2023-02-19T15:50:54.101Z,64.40
2023-02-19T15:53:25.488Z,61.90
2023-02-19T15:56:04.006Z,59.70
2023-02-19T15:58:43.828Z,66.20
2023-02-19T16:01:13.196Z,64.70
2023-02-19T16:03:39.526Z,63.30
2023-02-19T16:06:14.252Z,62.70
2023-02-19T16:08:42.566Z,62.90
2023-02-19T16:11:23.603Z,65.40
2023-02-19T16:14:13.244Z,63.60
2023-02-19T16:16:42.246Z,67.40
2023-02-19T16:19:09.126Z,63.20
2023-02-19T16:21:35.593Z,68.10
2023-02-19T16:24:26.676Z,70.50
2023-02-19T16:26:53.844Z,69.40
2023-02-19T16:32:00.463Z,76.20
2023-02-19T16:34:41.891Z,79.00
2023-02-19T16:37:37.373Z,82.90
2023-02-19T16:40:06.426Z,79.60
2023-02-19T16:42:33.567Z,75.10
2023-02-19T16:44:59.529Z,75.30
2023-02-19T16:47:33.669Z,68.30
2023-02-19T16:50:02.705Z,84.90
2023-02-19T16:52:29.254Z,79.40
2023-02-19T16:54:55.197Z,84.20
2023-02-19T16:57:21.194Z,85.30
2023-02-19T16:59:47.318Z,84.90
2023-02-19T17:02:20.710Z,87.60
2023-02-19T17:04:48.439Z,83.90
2023-02-19T17:07:17.077Z,86.50
2023-02-19T17:09:43.273Z,90.40
2023-02-19T17:12:11.555Z,94.00
2023-02-19T17:14:37.563Z,101.20
2023-02-19T17:17:04.892Z,98.00
2023-02-19T17:21:58.300Z,95.30
2023-02-19T17:24:24.430Z,98.10
2023-02-19T17:26:50.340Z,94.70
2023-02-19T17:29:17.813Z,111.70
2023-02-19T17:34:10.374Z,102.00
2023-02-19T17:36:37.422Z,110.90
2023-02-19T17:39:06.606Z,106.90
2023-02-19T17:41:32.569Z,107.10
2023-02-19T17:43:58.432Z,107.10
2023-02-19T17:46:26.816Z,98.30
2023-02-19T17:48:53.737Z,93.80
2023-02-19T17:51:20.056Z,93.30
2023-02-19T17:53:46.059Z,98.50
2023-02-19T17:56:18.870Z,100.50
2023-02-19T17:58:45.207Z,101.40
2023-02-19T18:01:11.728Z,96.00
2023-02-19T18:03:37.922Z,98.20
2023-02-19T18:06:04.804Z,103.90
2023-02-19T18:08:30.821Z,107.80
2023-02-19T18:10:56.754Z,107.40
2023-02-19T18:13:22.625Z,102.40
2023-02-19T18:15:48.543Z,102.20
2023-02-19T18:18:14.537Z,108.30
2023-02-19T18:20:40.438Z,100.70
2023-02-19T18:23:06.331Z,98.50
2023-02-19T18:25:32.196Z,96.60
2023-02-19T18:27:58.933Z,102.30
2023-02-19T18:30:25.620Z,104.10
2023-02-19T18:32:51.715Z,100.90
2023-02-19T18:35:19.241Z,93.10
2023-02-19T18:37:48.516Z,91.00
2023-02-19T18:40:14.550Z,100.40
2023-02-19T18:42:40.479Z,104.90
2023-02-19T18:45:07.080Z,92.50
2023-02-19T18:47:32.963Z,100.10
2023-02-19T18:49:59.068Z,99.10
2023-02-19T18:52:26.629Z,115.70
2023-02-19T18:54:54.499Z,113.70
2023-02-19T18:57:23.107Z,113.30
2023-02-19T18:59:49.922Z,101.80
2023-02-19T19:02:16.188Z,95.30
2023-02-19T19:04:42.561Z,87.30
2023-02-19T19:07:09.562Z,92.10
2023-02-19T19:09:35.819Z,89.20
2023-02-19T19:12:02.794Z,92.50
2023-02-19T19:14:28.861Z,98.30
2023-02-19T19:16:54.825Z,87.10
2023-02-19T19:19:21.072Z,99.30
2023-02-19T19:21:54.253Z,100.00
2023-02-19T19:24:21.559Z,103.50
2023-02-19T19:26:48.439Z,107.70
2023-02-19T19:29:16.495Z,96.70
2023-02-19T19:31:43.331Z,102.80
2023-02-19T19:34:10.555Z,89.50
2023-02-19T19:36:37.197Z,93.30
2023-02-19T19:39:03.896Z,92.00
2023-02-19T19:41:29.984Z,95.90
2023-02-19T19:43:56.344Z,91.50
2023-02-19T19:46:22.427Z,83.70
2023-02-19T19:48:50.225Z,87.80
2023-02-19T19:51:16.705Z,99.60
2023-02-19T19:53:42.659Z,97.10
2023-02-19T19:56:08.612Z,96.70
2023-02-19T19:58:36.570Z,107.40
2023-02-19T20:01:03.114Z,109.90
2023-02-19T20:03:29.019Z,101.40
2023-02-19T20:05:55.046Z,100.90
2023-02-19T20:08:21.616Z,100.60
2023-02-19T20:10:47.563Z,102.20
2023-02-19T20:13:18.113Z,100.30
2023-02-19T20:15:44.617Z,112.00
2023-02-19T20:18:10.727Z,110.40
2023-02-19T20:20:36.803Z,105.30
2023-02-19T20:23:02.843Z,99.90
2023-02-19T20:25:28.962Z,97.90
2023-02-19T20:27:54.851Z,110.70
2023-02-19T20:30:23.225Z,113.10
2023-02-19T20:32:49.827Z,114.40
2023-02-19T20:35:16.941Z,113.30
2023-02-19T20:37:43.523Z,114.60
2023-02-19T20:40:11.221Z,110.80
2023-02-19T20:42:37.398Z,109.80
2023-02-19T20:45:04.401Z,115.80
2023-02-19T20:47:31.041Z,112.30
2023-02-19T20:49:57.026Z,111.00
2023-02-19T20:52:24.179Z,110.60
2023-02-19T20:54:55.112Z,108.40
2023-02-19T20:57:22.349Z,109.30
2023-02-19T20:59:48.286Z,108.70
2023-02-19T21:02:18.884Z,107.60
2023-02-19T21:04:44.924Z,109.10
2023-02-19T21:07:10.925Z,112.30
2023-02-19T21:09:36.951Z,104.00
2023-02-19T21:12:03.138Z,109.80
2023-02-19T21:14:29.115Z,104.30
2023-02-19T21:16:55.087Z,109.90
2023-02-19T21:19:21.830Z,107.90
2023-02-19T21:21:47.926Z,98.70
2023-02-19T21:24:14.743Z,108.10
2023-02-19T21:26:42.504Z,103.10
2023-02-19T21:29:10.347Z,114.50
2023-02-19T21:31:47.657Z,106.80
2023-02-19T21:34:17.043Z,107.00
2023-02-19T21:36:43.051Z,118.70
2023-02-19T21:39:11.418Z,114.80
2023-02-19T21:41:37.404Z,112.50
2023-02-19T21:44:03.734Z,109.60
2023-02-19T21:46:30.068Z,115.20
2023-02-19T21:48:56.415Z,105.10
2023-02-19T21:51:30.278Z,104.40
2023-02-19T21:56:24.267Z,99.90
2023-02-19T21:58:50.527Z,106.20
2023-02-19T22:01:21.666Z,111.70
2023-02-19T22:03:48.069Z,101.40
2023-02-19T22:06:14.569Z,99.70
2023-02-19T22:08:40.516Z,101.70
2023-02-19T22:11:06.398Z,100.30
2023-02-19T22:13:32.316Z,96.00
2023-02-19T22:15:58.319Z,101.00
2023-02-19T22:18:24.291Z,100.00
2023-02-19T22:20:50.292Z,100.00
2023-02-19T22:23:16.255Z,97.30
2023-02-19T22:25:42.153Z,108.10
2023-02-19T22:28:08.067Z,99.80
2023-02-19T22:30:34.035Z,103.30
2023-02-19T22:32:59.943Z,108.70
2023-02-19T22:35:26.462Z,103.70
2023-02-19T22:37:52.636Z,102.10
2023-02-19T22:40:19.073Z,99.90
2023-02-19T22:42:45.102Z,113.10
2023-02-19T22:45:11.391Z,107.70
2023-02-19T22:47:37.568Z,113.30
2023-02-19T22:50:03.627Z,107.70
2023-02-19T22:52:29.671Z,105.40
2023-02-19T22:54:55.818Z,108.70
2023-02-19T22:57:21.799Z,108.20
2023-02-19T22:59:47.781Z,111.20
2023-02-19T23:02:13.800Z,110.50
2023-02-19T23:04:39.756Z,113.20
2023-02-19T23:07:06.625Z,110.90
2023-02-19T23:09:32.571Z,107.10
2023-02-19T23:12:08.434Z,111.30
2023-02-19T23:14:35.360Z,111.20
2023-02-19T23:17:01.996Z,112.40
2023-02-19T23:19:28.094Z,114.70
2023-02-19T23:21:54.236Z,110.40
2023-02-19T23:24:20.569Z,112.30
2023-02-19T23:26:49.377Z,117.30
2023-02-19T23:29:18.042Z,117.30
2023-02-19T23:31:44.464Z,114.90
2023-02-19T23:34:11.393Z,114.20
2023-02-19T23:36:45.013Z,109.10
2023-02-19T23:39:13.011Z,119.50
2023-02-19T23:41:38.984Z,117.80
2023-02-19T23:44:05.114Z,129.50
2023-02-19T23:46:33.226Z,118.70
2023-02-19T23:48:59.157Z,122.60
2023-02-19T23:51:25.027Z,121.10
2023-02-19T23:53:50.919Z,122.80
2023-02-19T23:56:27.560Z,125.10
2023-02-19T23:58:53.649Z,119.30
